Terminal Aerodrome Forecast
Issued by NWS Buffalo, NY

Home | Current Version | Previous Version | Text Only | Print | Product List | Glossary On
Versions: 1 2 3 4 5 6 7 8 9 10 11 12 13 14 15 16 17 18 19 20 21 22 23 24 25 26 27 28 29
876
FTUS41 KBUF 232328
TAFBUF
TAF
KBUF 232328Z 2400/2424 24025G35KT P6SM VCSH OVC015
     FM240100 25020G30KT 3SM -SHRASN OVC012
     FM240300 27018G24KT P6SM OVC015
     FM240600 28012KT P6SM OVC025
     FM241200 28011KT P6SM BKN025
     FM241500 30010KT P6SM BKN040=

USA.gov is the U.S. government's official web portal to all federal, state and local government web resources and services.